sensor_id;sensor_type;location;lat;lon;timestamp;P1;durP1;ratioP1;P2;durP2;ratioP2
68076;SDS011;54866;53.458;14.540;2022-08-04T00:01:34;4.30;;;3.50;;
68076;SDS011;54866;53.458;14.540;2022-08-04T00:04:10;9.20;;;3.20;;
68076;SDS011;54866;53.458;14.540;2022-08-04T00:06:50;3.10;;;2.70;;
68076;SDS011;54866;53.458;14.540;2022-08-04T00:09:35;6.90;;;3.00;;
68076;SDS011;54866;53.458;14.540;2022-08-04T00:12:11;3.80;;;3.00;;
68076;SDS011;54866;53.458;14.540;2022-08-04T00:14:45;5.10;;;3.00;;
68076;SDS011;54866;53.458;14.540;2022-08-04T00:17:17;4.60;;;2.90;;
68076;SDS011;54866;53.458;14.540;2022-08-04T00:19:52;5.00;;;3.10;;
68076;SDS011;54866;53.458;14.540;2022-08-04T00:22:26;4.90;;;3.30;;
68076;SDS011;54866;53.458;14.540;2022-08-04T00:24:59;4.70;;;3.00;;
68076;SDS011;54866;53.458;14.540;2022-08-04T00:27:31;5.30;;;3.00;;
68076;SDS011;54866;53.458;14.540;2022-08-04T00:30:01;5.40;;;2.60;;
68076;SDS011;54866;53.458;14.540;2022-08-04T00:32:32;6.40;;;3.30;;
68076;SDS011;54866;53.458;14.540;2022-08-04T00:35:04;3.80;;;2.90;;
68076;SDS011;54866;53.458;14.540;2022-08-04T00:37:36;4.60;;;3.10;;
68076;SDS011;54866;53.458;14.540;2022-08-04T00:40:08;5.90;;;3.10;;
68076;SDS011;54866;53.458;14.540;2022-08-04T00:42:50;4.20;;;2.80;;
68076;SDS011;54866;53.458;14.540;2022-08-04T00:45:43;5.00;;;2.80;;
68076;SDS011;54866;53.458;14.540;2022-08-04T00:48:45;4.80;;;3.30;;
68076;SDS011;54866;53.458;14.540;2022-08-04T00:51:40;3.90;;;2.90;;
68076;SDS011;54866;53.458;14.540;2022-08-04T00:54:17;4.80;;;3.40;;
68076;SDS011;54866;53.458;14.540;2022-08-04T00:57:01;7.50;;;3.70;;
68076;SDS011;54866;53.458;14.540;2022-08-04T00:59:42;6.70;;;3.40;;
68076;SDS011;54866;53.458;14.540;2022-08-04T01:02:28;5.30;;;3.40;;
68076;SDS011;54866;53.458;14.540;2022-08-04T01:05:04;5.20;;;3.50;;
68076;SDS011;54866;53.458;14.540;2022-08-04T01:07:51;5.20;;;3.70;;
68076;SDS011;54866;53.458;14.540;2022-08-04T01:10:30;4.00;;;3.50;;
68076;SDS011;54866;53.458;14.540;2022-08-04T01:16:10;7.30;;;3.80;;
68076;SDS011;54866;53.458;14.540;2022-08-04T01:18:51;7.40;;;3.40;;
68076;SDS011;54866;53.458;14.540;2022-08-04T01:24:36;7.60;;;3.70;;
68076;SDS011;54866;53.458;14.540;2022-08-04T01:27:30;6.10;;;3.80;;
68076;SDS011;54866;53.458;14.540;2022-08-04T01:30:13;5.30;;;3.70;;
68076;SDS011;54866;53.458;14.540;2022-08-04T01:32:44;4.10;;;3.70;;
68076;SDS011;54866;53.458;14.540;2022-08-04T01:35:20;6.70;;;3.90;;
68076;SDS011;54866;53.458;14.540;2022-08-04T01:37:56;5.80;;;3.90;;
68076;SDS011;54866;53.458;14.540;2022-08-04T01:40:31;4.40;;;3.70;;
68076;SDS011;54866;53.458;14.540;2022-08-04T01:43:04;5.90;;;4.30;;
68076;SDS011;54866;53.458;14.540;2022-08-04T01:45:35;6.60;;;4.00;;
68076;SDS011;54866;53.458;14.540;2022-08-04T01:48:06;4.50;;;3.80;;
68076;SDS011;54866;53.458;14.540;2022-08-04T01:50:38;6.20;;;4.60;;
68076;SDS011;54866;53.458;14.540;2022-08-04T01:53:10;6.60;;;3.90;;
68076;SDS011;54866;53.458;14.540;2022-08-04T01:55:40;5.10;;;4.50;;
68076;SDS011;54866;53.458;14.540;2022-08-04T01:58:10;7.00;;;4.20;;
68076;SDS011;54866;53.458;14.540;2022-08-04T02:00:45;6.70;;;4.30;;
68076;SDS011;54866;53.458;14.540;2022-08-04T02:03:23;5.40;;;4.50;;
68076;SDS011;54866;53.458;14.540;2022-08-04T02:05:54;5.10;;;4.50;;
68076;SDS011;54866;53.458;14.540;2022-08-04T02:08:32;7.50;;;4.90;;
68076;SDS011;54866;53.458;14.540;2022-08-04T02:11:11;5.30;;;4.70;;
68076;SDS011;54866;53.458;14.540;2022-08-04T02:13:47;7.20;;;4.50;;
68076;SDS011;54866;53.458;14.540;2022-08-04T02:16:31;6.60;;;5.00;;
68076;SDS011;54866;53.458;14.540;2022-08-04T02:19:09;6.00;;;4.70;;
68076;SDS011;54866;53.458;14.540;2022-08-04T02:21:54;6.20;;;4.50;;
68076;SDS011;54866;53.458;14.540;2022-08-04T02:24:35;5.60;;;4.20;;
68076;SDS011;54866;53.458;14.540;2022-08-04T02:27:10;5.60;;;4.50;;
68076;SDS011;54866;53.458;14.540;2022-08-04T02:29:43;4.40;;;4.00;;
68076;SDS011;54866;53.458;14.540;2022-08-04T02:32:19;4.20;;;3.80;;
68076;SDS011;54866;53.458;14.540;2022-08-04T02:34:53;6.10;;;4.60;;
68076;SDS011;54866;53.458;14.540;2022-08-04T02:37:27;5.80;;;4.60;;
68076;SDS011;54866;53.458;14.540;2022-08-04T02:40:01;7.00;;;5.10;;
68076;SDS011;54866;53.458;14.540;2022-08-04T02:42:33;5.60;;;4.30;;
68076;SDS011;54866;53.458;14.540;2022-08-04T02:45:05;5.10;;;4.00;;
68076;SDS011;54866;53.458;14.540;2022-08-04T02:47:36;6.10;;;4.60;;
68076;SDS011;54866;53.458;14.540;2022-08-04T02:50:08;5.10;;;4.60;;
68076;SDS011;54866;53.458;14.540;2022-08-04T02:52:41;6.20;;;4.60;;
68076;SDS011;54866;53.458;14.540;2022-08-04T02:55:12;5.80;;;4.70;;
68076;SDS011;54866;53.458;14.540;2022-08-04T02:57:44;5.40;;;4.90;;
68076;SDS011;54866;53.458;14.540;2022-08-04T03:00:16;7.00;;;4.80;;
68076;SDS011;54866;53.458;14.540;2022-08-04T03:02:53;5.80;;;5.30;;
68076;SDS011;54866;53.458;14.540;2022-08-04T03:05:30;5.10;;;4.60;;
68076;SDS011;54866;53.458;14.540;2022-08-04T03:11:25;5.70;;;4.70;;
68076;SDS011;54866;53.458;14.540;2022-08-04T03:14:07;6.70;;;5.20;;
68076;SDS011;54866;53.458;14.540;2022-08-04T03:16:59;5.30;;;4.80;;
68076;SDS011;54866;53.458;14.540;2022-08-04T03:29:29;5.50;;;5.00;;
68076;SDS011;54866;53.458;14.540;2022-08-04T03:32:28;6.20;;;4.90;;
68076;SDS011;54866;53.458;14.540;2022-08-04T03:35:20;7.90;;;5.00;;
68076;SDS011;54866;53.458;14.540;2022-08-04T03:38:15;6.60;;;4.60;;
68076;SDS011;54866;53.458;14.540;2022-08-04T03:41:21;6.90;;;4.90;;
68076;SDS011;54866;53.458;14.540;2022-08-04T03:47:24;6.30;;;5.10;;
68076;SDS011;54866;53.458;14.540;2022-08-04T03:53:07;7.50;;;5.00;;
68076;SDS011;54866;53.458;14.540;2022-08-04T03:56:03;6.40;;;5.20;;
68076;SDS011;54866;53.458;14.540;2022-08-04T04:11:28;6.70;;;5.00;;
68076;SDS011;54866;53.458;14.540;2022-08-04T04:14:13;6.00;;;5.40;;
68076;SDS011;54866;53.458;14.540;2022-08-04T04:17:04;5.50;;;4.90;;
68076;SDS011;54866;53.458;14.540;2022-08-04T04:22:58;6.30;;;5.50;;
68076;SDS011;54866;53.458;14.540;2022-08-04T04:25:39;6.80;;;5.80;;
68076;SDS011;54866;53.458;14.540;2022-08-04T04:28:47;6.40;;;5.70;;
68076;SDS011;54866;53.458;14.540;2022-08-04T04:31:32;8.40;;;5.70;;
68076;SDS011;54866;53.458;14.540;2022-08-04T04:34:12;8.50;;;6.10;;
68076;SDS011;54866;53.458;14.540;2022-08-04T04:36:57;7.10;;;6.40;;
68076;SDS011;54866;53.458;14.540;2022-08-04T04:39:42;6.80;;;6.10;;
68076;SDS011;54866;53.458;14.540;2022-08-04T04:42:34;7.70;;;6.90;;
68076;SDS011;54866;53.458;14.540;2022-08-04T04:45:24;7.40;;;6.70;;
68076;SDS011;54866;53.458;14.540;2022-08-04T04:47:59;7.60;;;6.90;;
68076;SDS011;54866;53.458;14.540;2022-08-04T04:50:38;8.10;;;6.80;;
68076;SDS011;54866;53.458;14.540;2022-08-04T04:53:22;7.00;;;6.20;;
68076;SDS011;54866;53.458;14.540;2022-08-04T04:55:58;7.90;;;6.30;;
68076;SDS011;54866;53.458;14.540;2022-08-04T04:58:33;7.60;;;7.00;;
68076;SDS011;54866;53.458;14.540;2022-08-04T05:01:11;7.50;;;5.90;;
68076;SDS011;54866;53.458;14.540;2022-08-04T05:04:02;6.90;;;6.20;;
68076;SDS011;54866;53.458;14.540;2022-08-04T05:06:46;7.60;;;5.70;;
68076;SDS011;54866;53.458;14.540;2022-08-04T05:09:40;6.90;;;6.20;;
68076;SDS011;54866;53.458;14.540;2022-08-04T05:15:25;7.50;;;6.10;;
68076;SDS011;54866;53.458;14.540;2022-08-04T05:18:01;6.90;;;5.90;;
68076;SDS011;54866;53.458;14.540;2022-08-04T05:20:34;6.60;;;6.00;;
68076;SDS011;54866;53.458;14.540;2022-08-04T05:23:10;7.00;;;6.30;;
68076;SDS011;54866;53.458;14.540;2022-08-04T05:25:45;8.50;;;6.50;;
68076;SDS011;54866;53.458;14.540;2022-08-04T05:28:21;6.70;;;6.10;;
68076;SDS011;54866;53.458;14.540;2022-08-04T05:30:56;8.90;;;8.00;;
68076;SDS011;54866;53.458;14.540;2022-08-04T05:33:30;7.80;;;6.60;;
68076;SDS011;54866;53.458;14.540;2022-08-04T05:36:09;7.20;;;6.40;;
68076;SDS011;54866;53.458;14.540;2022-08-04T05:38:43;6.90;;;6.30;;
68076;SDS011;54866;53.458;14.540;2022-08-04T05:41:17;6.70;;;5.80;;
68076;SDS011;54866;53.458;14.540;2022-08-04T05:43:48;7.00;;;6.10;;
68076;SDS011;54866;53.458;14.540;2022-08-04T05:46:18;8.40;;;6.00;;
68076;SDS011;54866;53.458;14.540;2022-08-04T05:48:48;6.60;;;5.90;;
68076;SDS011;54866;53.458;14.540;2022-08-04T05:51:19;6.90;;;6.10;;
68076;SDS011;54866;53.458;14.540;2022-08-04T05:53:50;9.90;;;6.50;;
68076;SDS011;54866;53.458;14.540;2022-08-04T05:56:22;8.00;;;5.70;;
68076;SDS011;54866;53.458;14.540;2022-08-04T05:58:52;6.60;;;6.00;;
68076;SDS011;54866;53.458;14.540;2022-08-04T06:01:23;6.20;;;5.60;;
68076;SDS011;54866;53.458;14.540;2022-08-04T06:03:53;8.40;;;5.90;;
68076;SDS011;54866;53.458;14.540;2022-08-04T06:06:25;6.40;;;5.20;;
68076;SDS011;54866;53.458;14.540;2022-08-04T06:08:56;8.10;;;6.50;;
68076;SDS011;54866;53.458;14.540;2022-08-04T06:11:26;6.80;;;5.50;;
68076;SDS011;54866;53.458;14.540;2022-08-04T06:13:58;5.90;;;5.00;;
68076;SDS011;54866;53.458;14.540;2022-08-04T06:16:33;6.50;;;5.60;;
68076;SDS011;54866;53.458;14.540;2022-08-04T06:19:07;5.70;;;5.20;;
68076;SDS011;54866;53.458;14.540;2022-08-04T06:21:40;6.70;;;5.60;;
68076;SDS011;54866;53.458;14.540;2022-08-04T06:24:12;5.80;;;5.20;;
68076;SDS011;54866;53.458;14.540;2022-08-04T06:26:45;6.20;;;5.20;;
68076;SDS011;54866;53.458;14.540;2022-08-04T06:29:17;6.20;;;5.60;;
68076;SDS011;54866;53.458;14.540;2022-08-04T06:31:52;6.10;;;5.60;;
68076;SDS011;54866;53.458;14.540;2022-08-04T06:34:28;7.10;;;6.10;;
68076;SDS011;54866;53.458;14.540;2022-08-04T06:36:59;8.40;;;6.20;;
68076;SDS011;54866;53.458;14.540;2022-08-04T06:39:30;6.30;;;5.60;;
68076;SDS011;54866;53.458;14.540;2022-08-04T06:42:02;7.60;;;5.80;;
68076;SDS011;54866;53.458;14.540;2022-08-04T06:44:33;6.70;;;5.90;;
68076;SDS011;54866;53.458;14.540;2022-08-04T06:47:04;6.90;;;6.10;;
68076;SDS011;54866;53.458;14.540;2022-08-04T06:49:37;7.10;;;5.60;;
68076;SDS011;54866;53.458;14.540;2022-08-04T06:52:08;6.90;;;5.70;;
68076;SDS011;54866;53.458;14.540;2022-08-04T06:54:42;8.50;;;5.90;;
68076;SDS011;54866;53.458;14.540;2022-08-04T06:57:13;7.50;;;6.60;;
68076;SDS011;54866;53.458;14.540;2022-08-04T06:59:46;8.10;;;6.10;;
68076;SDS011;54866;53.458;14.540;2022-08-04T07:02:19;8.60;;;7.00;;
68076;SDS011;54866;53.458;14.540;2022-08-04T07:04:51;10.80;;;6.70;;
68076;SDS011;54866;53.458;14.540;2022-08-04T07:07:21;9.20;;;7.40;;
68076;SDS011;54866;53.458;14.540;2022-08-04T07:09:53;9.80;;;8.30;;
68076;SDS011;54866;53.458;14.540;2022-08-04T07:12:23;9.80;;;8.60;;
68076;SDS011;54866;53.458;14.540;2022-08-04T07:14:54;9.20;;;8.10;;
68076;SDS011;54866;53.458;14.540;2022-08-04T07:17:25;10.90;;;8.50;;
68076;SDS011;54866;53.458;14.540;2022-08-04T07:19:57;12.00;;;9.10;;
68076;SDS011;54866;53.458;14.540;2022-08-04T07:22:27;14.30;;;9.00;;
68076;SDS011;54866;53.458;14.540;2022-08-04T07:24:58;11.90;;;8.40;;
68076;SDS011;54866;53.458;14.540;2022-08-04T07:27:28;11.30;;;7.80;;
68076;SDS011;54866;53.458;14.540;2022-08-04T07:29:57;12.00;;;8.60;;
68076;SDS011;54866;53.458;14.540;2022-08-04T07:32:28;15.10;;;9.10;;
68076;SDS011;54866;53.458;14.540;2022-08-04T07:34:58;10.70;;;7.80;;
68076;SDS011;54866;53.458;14.540;2022-08-04T07:37:29;13.20;;;7.70;;
68076;SDS011;54866;53.458;14.540;2022-08-04T07:39:59;8.50;;;7.60;;
68076;SDS011;54866;53.458;14.540;2022-08-04T07:42:30;12.00;;;7.20;;
68076;SDS011;54866;53.458;14.540;2022-08-04T07:45:00;10.70;;;7.50;;
68076;SDS011;54866;53.458;14.540;2022-08-04T07:47:30;10.00;;;7.30;;
68076;SDS011;54866;53.458;14.540;2022-08-04T07:50:00;11.10;;;7.60;;
68076;SDS011;54866;53.458;14.540;2022-08-04T07:52:31;9.80;;;7.20;;
68076;SDS011;54866;53.458;14.540;2022-08-04T07:55:01;9.40;;;7.40;;
68076;SDS011;54866;53.458;14.540;2022-08-04T07:57:31;15.90;;;8.70;;
68076;SDS011;54866;53.458;14.540;2022-08-04T08:00:01;13.80;;;7.60;;
68076;SDS011;54866;53.458;14.540;2022-08-04T08:02:32;9.10;;;6.50;;
68076;SDS011;54866;53.458;14.540;2022-08-04T08:05:04;15.50;;;7.80;;
68076;SDS011;54866;53.458;14.540;2022-08-04T08:07:36;16.70;;;7.90;;
68076;SDS011;54866;53.458;14.540;2022-08-04T08:10:10;15.30;;;8.50;;
68076;SDS011;54866;53.458;14.540;2022-08-04T08:12:40;12.50;;;6.90;;
68076;SDS011;54866;53.458;14.540;2022-08-04T08:15:11;15.00;;;7.00;;
68076;SDS011;54866;53.458;14.540;2022-08-04T08:17:41;8.70;;;6.20;;
68076;SDS011;54866;53.458;14.540;2022-08-04T08:20:11;14.70;;;6.80;;
68076;SDS011;54866;53.458;14.540;2022-08-04T08:22:40;12.30;;;7.30;;
68076;SDS011;54866;53.458;14.540;2022-08-04T08:25:11;10.40;;;6.60;;
68076;SDS011;54866;53.458;14.540;2022-08-04T08:27:41;11.70;;;6.70;;
68076;SDS011;54866;53.458;14.540;2022-08-04T08:30:11;12.50;;;6.30;;
68076;SDS011;54866;53.458;14.540;2022-08-04T08:32:41;11.80;;;6.90;;
68076;SDS011;54866;53.458;14.540;2022-08-04T08:35:11;14.50;;;8.00;;
68076;SDS011;54866;53.458;14.540;2022-08-04T08:37:43;9.80;;;6.50;;
68076;SDS011;54866;53.458;14.540;2022-08-04T08:40:20;8.20;;;5.40;;
68076;SDS011;54866;53.458;14.540;2022-08-04T08:45:52;9.80;;;6.70;;
68076;SDS011;54866;53.458;14.540;2022-08-04T08:51:54;9.80;;;6.10;;
68076;SDS011;54866;53.458;14.540;2022-08-04T08:54:43;9.30;;;6.60;;
68076;SDS011;54866;53.458;14.540;2022-08-04T08:57:32;9.40;;;6.50;;
68076;SDS011;54866;53.458;14.540;2022-08-04T09:00:10;8.30;;;6.30;;
68076;SDS011;54866;53.458;14.540;2022-08-04T09:06:05;18.40;;;7.80;;
68076;SDS011;54866;53.458;14.540;2022-08-04T09:08:53;14.70;;;7.20;;
68076;SDS011;54866;53.458;14.540;2022-08-04T09:11:36;10.40;;;7.10;;
68076;SDS011;54866;53.458;14.540;2022-08-04T09:14:13;10.70;;;7.40;;
68076;SDS011;54866;53.458;14.540;2022-08-04T09:16:50;6.10;;;5.50;;
68076;SDS011;54866;53.458;14.540;2022-08-04T09:19:26;8.40;;;6.10;;
68076;SDS011;54866;53.458;14.540;2022-08-04T09:22:02;11.40;;;6.40;;
68076;SDS011;54866;53.458;14.540;2022-08-04T09:24:40;8.00;;;5.70;;
68076;SDS011;54866;53.458;14.540;2022-08-04T09:27:23;9.40;;;6.70;;
68076;SDS011;54866;53.458;14.540;2022-08-04T09:30:04;11.50;;;6.90;;
68076;SDS011;54866;53.458;14.540;2022-08-04T09:32:38;8.00;;;6.60;;
68076;SDS011;54866;53.458;14.540;2022-08-04T09:35:18;7.30;;;5.80;;
68076;SDS011;54866;53.458;14.540;2022-08-04T09:38:03;8.20;;;5.80;;
68076;SDS011;54866;53.458;14.540;2022-08-04T09:40:42;12.20;;;6.40;;
68076;SDS011;54866;53.458;14.540;2022-08-04T09:43:18;12.30;;;6.30;;
68076;SDS011;54866;53.458;14.540;2022-08-04T09:45:57;7.90;;;5.10;;
68076;SDS011;54866;53.458;14.540;2022-08-04T09:48:33;6.90;;;5.10;;
68076;SDS011;54866;53.458;14.540;2022-08-04T09:51:13;7.60;;;6.00;;
68076;SDS011;54866;53.458;14.540;2022-08-04T09:53:55;8.40;;;4.90;;
68076;SDS011;54866;53.458;14.540;2022-08-04T09:56:31;5.80;;;5.30;;
68076;SDS011;54866;53.458;14.540;2022-08-04T09:59:09;5.50;;;5.00;;
68076;SDS011;54866;53.458;14.540;2022-08-04T10:01:45;6.10;;;5.40;;
68076;SDS011;54866;53.458;14.540;2022-08-04T10:04:17;7.80;;;5.70;;
68076;SDS011;54866;53.458;14.540;2022-08-04T10:07:02;4.70;;;4.30;;
68076;SDS011;54866;53.458;14.540;2022-08-04T10:09:46;5.20;;;4.30;;
68076;SDS011;54866;53.458;14.540;2022-08-04T10:12:30;5.40;;;4.10;;
68076;SDS011;54866;53.458;14.540;2022-08-04T10:15:09;4.60;;;3.90;;
68076;SDS011;54866;53.458;14.540;2022-08-04T10:23:37;5.00;;;4.40;;
68076;SDS011;54866;53.458;14.540;2022-08-04T10:26:22;6.00;;;4.40;;
68076;SDS011;54866;53.458;14.540;2022-08-04T10:29:00;5.10;;;4.10;;
68076;SDS011;54866;53.458;14.540;2022-08-04T10:31:35;4.40;;;4.00;;
68076;SDS011;54866;53.458;14.540;2022-08-04T10:34:11;4.10;;;3.80;;
68076;SDS011;54866;53.458;14.540;2022-08-04T10:36:47;3.80;;;3.50;;
68076;SDS011;54866;53.458;14.540;2022-08-04T10:39:24;4.10;;;3.70;;
68076;SDS011;54866;53.458;14.540;2022-08-04T10:42:10;4.70;;;3.50;;
68076;SDS011;54866;53.458;14.540;2022-08-04T10:44:51;3.60;;;3.30;;
68076;SDS011;54866;53.458;14.540;2022-08-04T10:47:33;4.80;;;4.00;;
68076;SDS011;54866;53.458;14.540;2022-08-04T10:50:08;4.10;;;3.70;;
68076;SDS011;54866;53.458;14.540;2022-08-04T10:52:43;6.20;;;3.70;;
68076;SDS011;54866;53.458;14.540;2022-08-04T10:55:22;4.00;;;3.40;;
68076;SDS011;54866;53.458;14.540;2022-08-04T10:57:58;3.80;;;3.50;;
68076;SDS011;54866;53.458;14.540;2022-08-04T11:00:32;4.60;;;3.30;;
68076;SDS011;54866;53.458;14.540;2022-08-04T11:03:11;3.90;;;2.90;;
68076;SDS011;54866;53.458;14.540;2022-08-04T11:05:47;3.40;;;3.10;;
68076;SDS011;54866;53.458;14.540;2022-08-04T11:08:22;5.40;;;3.50;;
68076;SDS011;54866;53.458;14.540;2022-08-04T11:10:58;3.30;;;3.00;;
68076;SDS011;54866;53.458;14.540;2022-08-04T11:13:33;3.40;;;3.10;;
68076;SDS011;54866;53.458;14.540;2022-08-04T11:16:12;5.40;;;4.20;;
68076;SDS011;54866;53.458;14.540;2022-08-04T11:18:48;3.50;;;3.20;;
68076;SDS011;54866;53.458;14.540;2022-08-04T11:21:33;3.70;;;3.40;;
68076;SDS011;54866;53.458;14.540;2022-08-04T11:24:07;4.30;;;3.30;;
68076;SDS011;54866;53.458;14.540;2022-08-04T11:26:45;5.70;;;3.50;;
68076;SDS011;54866;53.458;14.540;2022-08-04T11:29:21;4.00;;;3.10;;
68076;SDS011;54866;53.458;14.540;2022-08-04T11:31:59;3.60;;;3.30;;
68076;SDS011;54866;53.458;14.540;2022-08-04T11:34:35;4.00;;;3.20;;
68076;SDS011;54866;53.458;14.540;2022-08-04T11:37:12;4.80;;;3.40;;
68076;SDS011;54866;53.458;14.540;2022-08-04T11:39:49;4.60;;;2.80;;
68076;SDS011;54866;53.458;14.540;2022-08-04T11:44:50;5.10;;;3.00;;
68076;SDS011;54866;53.458;14.540;2022-08-04T11:47:27;3.90;;;3.40;;
68076;SDS011;54866;53.458;14.540;2022-08-04T11:50:03;4.70;;;3.20;;
68076;SDS011;54866;53.458;14.540;2022-08-04T11:52:37;3.80;;;3.20;;
68076;SDS011;54866;53.458;14.540;2022-08-04T11:55:11;4.30;;;2.80;;
68076;SDS011;54866;53.458;14.540;2022-08-04T11:57:45;5.30;;;2.90;;
68076;SDS011;54866;53.458;14.540;2022-08-04T12:00:16;4.10;;;3.10;;
68076;SDS011;54866;53.458;14.540;2022-08-04T12:02:54;3.70;;;2.80;;
68076;SDS011;54866;53.458;14.540;2022-08-04T12:05:33;3.80;;;2.60;;
68076;SDS011;54866;53.458;14.540;2022-08-04T12:08:14;3.70;;;2.80;;
68076;SDS011;54866;53.458;14.540;2022-08-04T12:11:04;3.20;;;2.80;;
68076;SDS011;54866;53.458;14.540;2022-08-04T12:13:45;4.30;;;2.80;;
68076;SDS011;54866;53.458;14.540;2022-08-04T12:16:21;3.40;;;2.50;;
68076;SDS011;54866;53.458;14.540;2022-08-04T12:18:57;3.40;;;2.70;;
68076;SDS011;54866;53.458;14.540;2022-08-04T12:21:30;4.20;;;2.70;;
68076;SDS011;54866;53.458;14.540;2022-08-04T12:24:07;2.70;;;2.40;;
68076;SDS011;54866;53.458;14.540;2022-08-04T12:26:46;4.00;;;3.00;;
68076;SDS011;54866;53.458;14.540;2022-08-04T12:29:19;6.90;;;3.70;;
68076;SDS011;54866;53.458;14.540;2022-08-04T12:31:54;5.10;;;3.00;;
68076;SDS011;54866;53.458;14.540;2022-08-04T12:34:30;3.10;;;2.80;;
68076;SDS011;54866;53.458;14.540;2022-08-04T12:37:03;4.20;;;2.50;;
68076;SDS011;54866;53.458;14.540;2022-08-04T12:39:39;3.10;;;2.60;;
68076;SDS011;54866;53.458;14.540;2022-08-04T12:42:14;3.00;;;2.40;;
68076;SDS011;54866;53.458;14.540;2022-08-04T12:44:50;5.00;;;2.60;;
68076;SDS011;54866;53.458;14.540;2022-08-04T12:47:23;3.00;;;2.60;;
68076;SDS011;54866;53.458;14.540;2022-08-04T12:49:58;3.70;;;2.70;;
68076;SDS011;54866;53.458;14.540;2022-08-04T12:52:30;5.80;;;2.80;;
68076;SDS011;54866;53.458;14.540;2022-08-04T12:55:08;3.40;;;2.60;;
68076;SDS011;54866;53.458;14.540;2022-08-04T12:57:40;4.60;;;2.50;;
68076;SDS011;54866;53.458;14.540;2022-08-04T13:00:13;2.60;;;2.40;;
68076;SDS011;54866;53.458;14.540;2022-08-04T13:02:52;3.80;;;2.70;;
68076;SDS011;54866;53.458;14.540;2022-08-04T13:05:26;3.10;;;2.70;;
68076;SDS011;54866;53.458;14.540;2022-08-04T13:07:58;4.80;;;2.90;;
68076;SDS011;54866;53.458;14.540;2022-08-04T13:10:31;6.10;;;2.60;;
68076;SDS011;54866;53.458;14.540;2022-08-04T13:13:12;3.30;;;3.00;;
68076;SDS011;54866;53.458;14.540;2022-08-04T13:15:54;3.20;;;2.90;;
68076;SDS011;54866;53.458;14.540;2022-08-04T13:18:26;3.60;;;2.70;;
68076;SDS011;54866;53.458;14.540;2022-08-04T13:21:06;2.90;;;2.60;;
68076;SDS011;54866;53.458;14.540;2022-08-04T13:23:40;4.00;;;2.50;;
68076;SDS011;54866;53.458;14.540;2022-08-04T13:26:12;3.00;;;2.40;;
68076;SDS011;54866;53.458;14.540;2022-08-04T13:28:45;4.30;;;2.60;;
68076;SDS011;54866;53.458;14.540;2022-08-04T13:31:17;4.50;;;2.90;;
68076;SDS011;54866;53.458;14.540;2022-08-04T13:33:50;2.90;;;2.60;;
68076;SDS011;54866;53.458;14.540;2022-08-04T13:36:24;3.50;;;2.90;;
68076;SDS011;54866;53.458;14.540;2022-08-04T13:38:56;3.00;;;2.70;;
68076;SDS011;54866;53.458;14.540;2022-08-04T13:41:29;3.20;;;2.70;;
68076;SDS011;54866;53.458;14.540;2022-08-04T13:44:01;4.50;;;3.10;;
68076;SDS011;54866;53.458;14.540;2022-08-04T13:46:38;4.00;;;3.10;;
68076;SDS011;54866;53.458;14.540;2022-08-04T13:49:15;3.80;;;2.90;;
68076;SDS011;54866;53.458;14.540;2022-08-04T13:51:47;5.50;;;3.00;;
68076;SDS011;54866;53.458;14.540;2022-08-04T13:54:20;3.50;;;3.10;;
68076;SDS011;54866;53.458;14.540;2022-08-04T13:56:53;3.20;;;2.90;;
68076;SDS011;54866;53.458;14.540;2022-08-04T13:59:27;4.50;;;2.90;;
68076;SDS011;54866;53.458;14.540;2022-08-04T14:02:03;3.50;;;3.10;;
68076;SDS011;54866;53.458;14.540;2022-08-04T14:07:10;3.80;;;2.90;;
68076;SDS011;54866;53.458;14.540;2022-08-04T14:09:42;3.00;;;2.40;;
68076;SDS011;54866;53.458;14.540;2022-08-04T14:12:13;4.70;;;2.80;;
68076;SDS011;54866;53.458;14.540;2022-08-04T14:14:45;3.40;;;2.70;;
68076;SDS011;54866;53.458;14.540;2022-08-04T14:17:16;4.10;;;2.40;;
68076;SDS011;54866;53.458;14.540;2022-08-04T14:19:52;3.90;;;2.60;;
68076;SDS011;54866;53.458;14.540;2022-08-04T14:22:30;4.00;;;3.50;;
68076;SDS011;54866;53.458;14.540;2022-08-04T14:25:02;4.20;;;2.70;;
68076;SDS011;54866;53.458;14.540;2022-08-04T14:27:42;2.90;;;2.40;;
68076;SDS011;54866;53.458;14.540;2022-08-04T14:30:23;3.50;;;2.80;;
68076;SDS011;54866;53.458;14.540;2022-08-04T14:32:54;4.90;;;3.20;;
68076;SDS011;54866;53.458;14.540;2022-08-04T14:35:28;5.20;;;3.40;;
68076;SDS011;54866;53.458;14.540;2022-08-04T14:38:00;3.80;;;3.00;;
68076;SDS011;54866;53.458;14.540;2022-08-04T14:40:32;3.20;;;2.90;;
68076;SDS011;54866;53.458;14.540;2022-08-04T14:43:04;3.80;;;3.10;;
68076;SDS011;54866;53.458;14.540;2022-08-04T14:45:35;2.90;;;2.70;;
68076;SDS011;54866;53.458;14.540;2022-08-04T14:48:09;4.00;;;3.00;;
68076;SDS011;54866;53.458;14.540;2022-08-04T14:50:41;3.60;;;3.30;;
68076;SDS011;54866;53.458;14.540;2022-08-04T14:53:13;3.90;;;3.50;;
68076;SDS011;54866;53.458;14.540;2022-08-04T14:55:44;5.90;;;3.70;;
68076;SDS011;54866;53.458;14.540;2022-08-04T14:58:20;4.40;;;3.30;;
68076;SDS011;54866;53.458;14.540;2022-08-04T15:00:54;3.00;;;2.80;;
68076;SDS011;54866;53.458;14.540;2022-08-04T15:03:25;3.50;;;3.00;;
68076;SDS011;54866;53.458;14.540;2022-08-04T15:05:56;4.70;;;3.00;;
68076;SDS011;54866;53.458;14.540;2022-08-04T15:08:28;3.30;;;2.90;;
68076;SDS011;54866;53.458;14.540;2022-08-04T15:10:59;3.90;;;2.70;;
68076;SDS011;54866;53.458;14.540;2022-08-04T15:13:29;3.10;;;2.80;;
68076;SDS011;54866;53.458;14.540;2022-08-04T15:16:00;3.40;;;2.60;;
68076;SDS011;54866;53.458;14.540;2022-08-04T15:18:30;4.00;;;2.90;;
68076;SDS011;54866;53.458;14.540;2022-08-04T15:21:00;4.10;;;3.70;;
68076;SDS011;54866;53.458;14.540;2022-08-04T15:23:31;3.30;;;3.00;;
68076;SDS011;54866;53.458;14.540;2022-08-04T15:26:02;3.20;;;2.60;;
68076;SDS011;54866;53.458;14.540;2022-08-04T15:28:34;3.80;;;3.30;;
68076;SDS011;54866;53.458;14.540;2022-08-04T15:31:07;4.80;;;3.10;;
68076;SDS011;54866;53.458;14.540;2022-08-04T15:33:39;3.10;;;2.80;;
68076;SDS011;54866;53.458;14.540;2022-08-04T15:36:14;3.50;;;3.20;;
68076;SDS011;54866;53.458;14.540;2022-08-04T15:38:58;4.40;;;3.00;;
68076;SDS011;54866;53.458;14.540;2022-08-04T15:41:37;3.70;;;3.20;;
68076;SDS011;54866;53.458;14.540;2022-08-04T15:44:20;4.30;;;3.30;;
68076;SDS011;54866;53.458;14.540;2022-08-04T15:47:12;4.00;;;3.60;;
68076;SDS011;54866;53.458;14.540;2022-08-04T15:49:43;3.30;;;3.00;;
68076;SDS011;54866;53.458;14.540;2022-08-04T15:52:28;4.10;;;3.10;;
68076;SDS011;54866;53.458;14.540;2022-08-04T15:55:31;3.80;;;3.10;;
68076;SDS011;54866;53.458;14.540;2022-08-04T15:58:05;4.10;;;3.10;;
68076;SDS011;54866;53.458;14.540;2022-08-04T16:03:45;4.00;;;3.30;;
68076;SDS011;54866;53.458;14.540;2022-08-04T16:09:10;3.80;;;3.40;;
68076;SDS011;54866;53.458;14.540;2022-08-04T16:11:50;3.50;;;3.00;;
68076;SDS011;54866;53.458;14.540;2022-08-04T16:14:33;3.80;;;3.30;;
68076;SDS011;54866;53.458;14.540;2022-08-04T16:17:17;4.30;;;3.10;;
68076;SDS011;54866;53.458;14.540;2022-08-04T16:20:08;5.70;;;3.20;;
68076;SDS011;54866;53.458;14.540;2022-08-04T16:22:41;4.10;;;3.50;;
68076;SDS011;54866;53.458;14.540;2022-08-04T16:25:18;3.60;;;3.30;;
68076;SDS011;54866;53.458;14.540;2022-08-04T16:31:13;5.60;;;3.40;;
68076;SDS011;54866;53.458;14.540;2022-08-04T16:33:44;4.20;;;3.80;;
68076;SDS011;54866;53.458;14.540;2022-08-04T16:36:15;3.90;;;3.10;;
68076;SDS011;54866;53.458;14.540;2022-08-04T16:39:04;5.00;;;3.20;;
68076;SDS011;54866;53.458;14.540;2022-08-04T16:41:41;5.30;;;3.90;;